Woodlake, California
Current Conditions -  °F | °C
As of 2:35 AM on Friday 21 Nov 2014 (Local Time) from KVIS Reporting Station
Overcast Overcast  
Wind Chill: 46°   Ceiling: 300
Heat Index: 48°   Visibility: 0mi
Dew Point: 43°   Wind: 6mph
Humidity: 82%   Direction: 280°W
Pressure: 30.01"   Gusts: NA
Location:  36.42°N, 119.09°W
Report Text: KVIS 211035Z 28005KT M1/4SM OVC003 09/06 A3001 RMK AO1
Loading
Personal Weather Stations






























Interactive Weather Map New forecast layout! Learn more

10-Day Weather Forecast

Advertisements
Track Severe Weather on mobile